Terminal Aerodrome Forecast
Issued by NWS

Home | Current Version | Previous Version | Text Only | Print | Product List | Glossary On
Versions: 1 2 3 4 5 6 7 8 9 10 11 12 13 14 15 16 17 18 19
000
FTPQ31 PGUM 290520
TAFGUM
TAF

TAF
PGSN 290520Z 2906/3006 16011KT P6SM VCSH SCT015 SCT025 BKN090
      TEMPO 2906/2910 16012G20KT 3SM +SHRA SCT007 OVC015
     FM300100 16009KT P6SM VCSH SCT018 SCT035 BKN150=

USA.gov is the U.S. government's official web portal to all federal, state and local government web resources and services.